createdAt,value
2022-08-03T00:00:50.930Z,532.00
2022-08-03T00:01:50.960Z,531.00
2022-08-03T00:02:51.035Z,530.00
2022-08-03T00:03:50.982Z,532.00
2022-08-03T00:04:50.874Z,534.00
2022-08-03T00:06:04.857Z,537.00
2022-08-03T00:06:51.850Z,534.00
2022-08-03T00:07:50.905Z,534.00
2022-08-03T00:08:50.843Z,536.00
2022-08-03T00:09:50.920Z,537.00
2022-08-03T00:10:50.792Z,535.00
2022-08-03T00:11:50.829Z,535.00
2022-08-03T00:12:50.771Z,539.00
2022-08-03T00:13:50.842Z,543.00
2022-08-03T00:14:50.780Z,541.00
2022-08-03T00:15:50.762Z,542.00
2022-08-03T00:16:50.711Z,540.00
2022-08-03T00:17:52.022Z,538.00
2022-08-03T00:18:50.689Z,535.00
2022-08-03T00:19:50.792Z,534.00
2022-08-03T00:20:50.691Z,537.00
2022-08-03T00:21:50.702Z,535.00
2022-08-03T00:22:50.633Z,537.00
2022-08-03T00:23:51.355Z,538.00
2022-08-03T00:24:50.603Z,539.00
2022-08-03T00:25:50.622Z,541.00
2022-08-03T00:26:50.593Z,541.00
2022-08-03T00:27:50.829Z,539.00
2022-08-03T00:28:50.557Z,535.00
2022-08-03T00:29:59.632Z,531.00
2022-08-03T00:30:51.525Z,531.00
2022-08-03T00:31:52.574Z,532.00
2022-08-03T00:32:51.531Z,531.00
2022-08-03T00:33:58.151Z,526.00
2022-08-03T00:34:57.906Z,527.00
2022-08-03T00:35:51.457Z,532.00
2022-08-03T00:36:50.495Z,530.00
2022-08-03T00:37:50.455Z,525.00
2022-08-03T00:38:50.514Z,528.00
2022-08-03T00:39:50.413Z,529.00
2022-08-03T00:40:51.452Z,533.00
2022-08-03T00:41:50.374Z,537.00
2022-08-03T00:42:50.444Z,541.00
2022-08-03T00:43:50.386Z,545.00
2022-08-03T00:44:50.463Z,546.00
2022-08-03T00:45:50.333Z,547.00
2022-08-03T00:46:50.367Z,546.00
2022-08-03T00:47:50.308Z,544.00
2022-08-03T00:48:50.400Z,547.00
2022-08-03T00:49:50.466Z,547.00
2022-08-03T00:50:50.319Z,545.00
2022-08-03T00:51:50.245Z,544.00
2022-08-03T00:52:50.307Z,542.00
2022-08-03T00:53:50.234Z,541.00
2022-08-03T00:54:50.324Z,540.00
2022-08-03T00:55:50.227Z,539.00
2022-08-03T00:56:59.902Z,542.00
2022-08-03T00:57:51.176Z,543.00
2022-08-03T00:58:50.252Z,543.00
2022-08-03T00:59:50.148Z,542.00
2022-08-03T01:00:50.279Z,540.00
2022-08-03T01:01:50.169Z,538.00
2022-08-03T01:02:50.176Z,537.00
2022-08-03T01:03:50.094Z,534.00
2022-08-03T01:04:50.187Z,532.00
2022-08-03T01:05:50.068Z,533.00
2022-08-03T01:06:50.160Z,534.00
2022-08-03T01:07:50.039Z,541.00
2022-08-03T01:08:50.117Z,545.00
2022-08-03T01:09:50.017Z,546.00
2022-08-03T01:10:50.030Z,547.00
2022-08-03T01:12:00.521Z,547.00
2022-08-03T01:12:51.007Z,549.00
2022-08-03T01:14:01.080Z,548.00
2022-08-03T01:14:50.987Z,546.00
2022-08-03T01:15:49.934Z,545.00
2022-08-03T01:16:49.976Z,546.00
2022-08-03T01:17:49.918Z,544.00
2022-08-03T01:18:49.956Z,543.00
2022-08-03T01:19:49.893Z,540.00
2022-08-03T01:20:49.920Z,539.00
2022-08-03T01:21:49.850Z,543.00
2022-08-03T01:22:49.921Z,541.00
2022-08-03T01:23:49.830Z,544.00
2022-08-03T01:24:49.879Z,544.00
2022-08-03T01:25:54.363Z,544.00
2022-08-03T01:26:49.788Z,544.00
2022-08-03T01:27:49.848Z,543.00
2022-08-03T01:28:49.760Z,538.00
2022-08-03T01:29:49.859Z,538.00
2022-08-03T01:30:49.751Z,539.00
2022-08-03T01:32:58.120Z,539.00
2022-08-03T01:32:59.469Z,538.00
2022-08-03T01:33:50.700Z,540.00
2022-08-03T01:34:49.797Z,541.00
2022-08-03T01:35:49.674Z,536.00
2022-08-03T01:36:49.759Z,539.00
2022-08-03T01:37:49.640Z,540.00
2022-08-03T01:38:49.728Z,541.00
2022-08-03T01:39:49.621Z,540.00
2022-08-03T01:40:49.632Z,542.00
2022-08-03T01:41:49.591Z,542.00
2022-08-03T01:42:49.699Z,547.00
2022-08-03T01:44:27.547Z,552.00
2022-08-03T01:44:50.549Z,552.00
2022-08-03T01:45:49.534Z,552.00
2022-08-03T01:46:49.572Z,554.00
2022-08-03T01:47:49.519Z,553.00
2022-08-03T01:48:49.592Z,553.00
2022-08-03T01:49:49.563Z,553.00
2022-08-03T01:50:49.502Z,551.00
2022-08-03T01:52:04.335Z,548.00
2022-08-03T01:52:50.471Z,547.00
2022-08-03T01:53:49.544Z,547.00
2022-08-03T01:54:49.428Z,547.00
2022-08-03T01:55:49.475Z,549.00
2022-08-03T01:56:49.382Z,549.00
2022-08-03T01:58:06.087Z,551.00
2022-08-03T01:58:50.382Z,553.00
2022-08-03T01:59:49.365Z,555.00
2022-08-03T02:00:49.388Z,558.00
2022-08-03T02:02:19.566Z,558.00
2022-08-03T02:02:50.462Z,559.00
2022-08-03T02:04:00.667Z,560.00
2022-08-03T02:04:50.306Z,559.00
2022-08-03T02:05:54.114Z,556.00
2022-08-03T02:07:01.928Z,553.00
2022-08-03T02:07:50.242Z,552.00
2022-08-03T02:08:49.334Z,554.00
2022-08-03T02:09:49.213Z,552.00
2022-08-03T02:10:49.295Z,550.00
2022-08-03T02:11:49.191Z,548.00
2022-08-03T02:12:51.156Z,549.00
2022-08-03T02:13:49.161Z,550.00
2022-08-03T02:14:49.203Z,550.00
2022-08-03T02:15:49.166Z,551.00
2022-08-03T02:16:49.183Z,549.00
2022-08-03T02:17:49.103Z,547.00
2022-08-03T02:18:49.203Z,546.00
2022-08-03T02:19:49.096Z,546.00
2022-08-03T02:20:49.103Z,547.00
2022-08-03T02:21:57.272Z,549.00
2022-08-03T02:22:50.043Z,547.00
2022-08-03T02:23:49.145Z,544.00
2022-08-03T02:24:50.942Z,544.00
2022-08-03T02:25:49.043Z,543.00
2022-08-03T02:26:48.995Z,546.00
2022-08-03T02:27:49.125Z,548.00
2022-08-03T02:28:48.968Z,550.00
2022-08-03T02:29:48.967Z,551.00
2022-08-03T02:30:51.833Z,549.00
2022-08-03T02:31:49.924Z,548.00
2022-08-03T02:32:49.045Z,548.00
2022-08-03T02:33:48.925Z,553.00
2022-08-03T02:34:48.904Z,552.00
2022-08-03T02:35:48.874Z,550.00
2022-08-03T02:36:48.917Z,553.00
2022-08-03T02:37:49.757Z,553.00
2022-08-03T02:38:48.987Z,552.00
2022-08-03T02:39:48.815Z,553.00
2022-08-03T02:40:48.943Z,553.00
2022-08-03T02:41:48.795Z,551.00
2022-08-03T02:42:48.859Z,553.00
2022-08-03T02:44:06.201Z,552.00
2022-08-03T02:44:49.769Z,552.00
2022-08-03T02:45:49.807Z,551.00
2022-08-03T02:46:48.725Z,549.00
2022-08-03T02:47:53.386Z,549.00
2022-08-03T02:48:49.709Z,544.00
2022-08-03T02:49:51.246Z,543.00
2022-08-03T02:50:48.709Z,541.00
2022-08-03T02:51:48.716Z,539.00
2022-08-03T02:52:48.653Z,537.00
2022-08-03T02:53:48.727Z,537.00
2022-08-03T02:54:48.629Z,540.00
2022-08-03T02:55:48.699Z,540.00
2022-08-03T02:56:48.596Z,540.00
2022-08-03T02:57:48.659Z,540.00
2022-08-03T02:58:48.566Z,542.00
2022-08-03T02:59:48.667Z,543.00
2022-08-03T03:00:48.564Z,544.00
2022-08-03T03:01:48.645Z,540.00
2022-08-03T03:02:48.518Z,540.00
2022-08-03T03:03:48.596Z,539.00
2022-08-03T03:04:54.993Z,537.00
2022-08-03T03:05:55.823Z,535.00
2022-08-03T03:06:49.489Z,534.00
2022-08-03T03:07:52.887Z,534.00
2022-08-03T03:08:48.439Z,536.00
2022-08-03T03:09:48.539Z,536.00
2022-08-03T03:10:48.408Z,536.00
2022-08-03T03:11:49.398Z,539.00
2022-08-03T03:12:48.538Z,537.00
2022-08-03T03:13:48.367Z,537.00
2022-08-03T03:14:48.378Z,537.00
2022-08-03T03:15:48.337Z,534.00
2022-08-03T03:16:50.669Z,532.00
2022-08-03T03:17:48.308Z,531.00
2022-08-03T03:18:48.350Z,532.00
2022-08-03T03:19:48.295Z,533.00
2022-08-03T03:20:49.148Z,535.00
2022-08-03T03:21:48.469Z,537.00
2022-08-03T03:22:48.329Z,537.00
2022-08-03T03:23:48.238Z,541.00
2022-08-03T03:24:48.309Z,543.00
2022-08-03T03:25:48.219Z,542.00
2022-08-03T03:26:48.258Z,542.00
2022-08-03T03:27:49.574Z,543.00
2022-08-03T03:28:48.272Z,544.00
2022-08-03T03:29:48.160Z,542.00
2022-08-03T03:30:52.744Z,543.00
2022-08-03T03:31:49.150Z,542.00
2022-08-03T03:32:48.198Z,543.00
2022-08-03T03:33:48.112Z,544.00
2022-08-03T03:34:48.210Z,545.00
2022-08-03T03:35:48.091Z,545.00
2022-08-03T03:36:48.179Z,547.00
2022-08-03T03:37:48.057Z,547.00
2022-08-03T03:38:48.137Z,549.00
2022-08-03T03:39:48.029Z,552.00
2022-08-03T03:40:48.054Z,553.00
2022-08-03T03:41:47.999Z,553.00
2022-08-03T03:42:48.119Z,558.00
2022-08-03T03:43:47.980Z,555.00
2022-08-03T03:44:49.014Z,555.00
2022-08-03T03:45:47.962Z,555.00
2022-08-03T03:46:48.020Z,552.00
2022-08-03T03:47:47.921Z,552.00
2022-08-03T03:48:48.012Z,553.00
2022-08-03T03:49:47.903Z,557.00
2022-08-03T03:50:47.921Z,557.00
2022-08-03T03:51:47.911Z,559.00
2022-08-03T03:52:48.960Z,558.00
2022-08-03T03:53:47.851Z,557.00
2022-08-03T03:54:47.901Z,557.00
2022-08-03T03:55:59.178Z,557.00
2022-08-03T03:56:48.801Z,556.00
2022-08-03T03:57:47.871Z,555.00
2022-08-03T03:58:47.775Z,555.00
2022-08-03T03:59:47.881Z,554.00
2022-08-03T04:00:47.812Z,555.00
2022-08-03T04:01:47.790Z,555.00
2022-08-03T04:02:48.730Z,554.00
2022-08-03T04:03:47.811Z,552.00
2022-08-03T04:04:47.706Z,551.00
2022-08-03T04:05:47.751Z,552.00
2022-08-03T04:06:47.692Z,554.00
2022-08-03T04:07:47.732Z,551.00
2022-08-03T04:08:47.651Z,552.00
2022-08-03T04:09:47.751Z,557.00
2022-08-03T04:10:47.621Z,560.00
2022-08-03T04:11:47.678Z,561.00
2022-08-03T04:12:50.255Z,562.00
2022-08-03T04:13:47.679Z,560.00
2022-08-03T04:14:47.580Z,559.00
2022-08-03T04:15:47.583Z,560.00
2022-08-03T04:16:47.542Z,558.00
2022-08-03T04:17:47.602Z,558.00
2022-08-03T04:18:47.539Z,558.00
2022-08-03T04:19:47.625Z,560.00
2022-08-03T04:20:47.710Z,560.00
2022-08-03T04:21:47.530Z,558.00
2022-08-03T04:22:47.465Z,555.00
2022-08-03T04:23:47.543Z,554.00
2022-08-03T04:24:47.457Z,553.00
2022-08-03T04:25:47.455Z,553.00
2022-08-03T04:26:50.943Z,549.00
2022-08-03T04:28:08.164Z,549.00
2022-08-03T04:28:48.383Z,546.00
2022-08-03T04:29:48.529Z,545.00
2022-08-03T04:30:47.443Z,544.00
2022-08-03T04:31:47.363Z,546.00
2022-08-03T04:32:47.416Z,543.00
2022-08-03T04:33:47.335Z,545.00
2022-08-03T04:34:48.341Z,544.00
2022-08-03T04:36:01.887Z,546.00
2022-08-03T04:36:48.300Z,548.00
2022-08-03T04:37:47.335Z,550.00
2022-08-03T04:38:47.274Z,550.00
2022-08-03T04:39:47.354Z,552.00
2022-08-03T04:40:47.265Z,551.00
2022-08-03T04:42:08.385Z,546.00
2022-08-03T04:42:48.205Z,545.00
2022-08-03T04:43:47.327Z,545.00
2022-08-03T04:44:47.205Z,545.00
2022-08-03T04:45:47.218Z,545.00
2022-08-03T04:46:52.729Z,544.00
2022-08-03T04:47:48.155Z,542.00
2022-08-03T04:48:47.224Z,541.00
2022-08-03T04:49:47.108Z,538.00
2022-08-03T04:50:47.124Z,536.00
2022-08-03T04:51:47.079Z,541.00
2022-08-03T04:52:47.191Z,546.00
2022-08-03T04:53:47.067Z,546.00
2022-08-03T04:54:50.436Z,547.00
2022-08-03T04:55:47.026Z,550.00
2022-08-03T04:56:47.070Z,552.00
2022-08-03T04:57:46.998Z,553.00
2022-08-03T04:58:47.077Z,549.00
2022-08-03T04:59:46.997Z,547.00
2022-08-03T05:00:46.997Z,546.00
2022-08-03T05:01:47.031Z,547.00
2022-08-03T05:02:47.064Z,549.00
2022-08-03T05:03:46.918Z,551.00
2022-08-03T05:04:47.017Z,553.00
2022-08-03T05:05:50.343Z,555.00
2022-08-03T05:06:48.409Z,551.00
2022-08-03T05:07:47.867Z,548.00
2022-08-03T05:08:48.874Z,547.00
2022-08-03T05:09:50.528Z,543.00
2022-08-03T05:10:47.850Z,544.00
2022-08-03T05:11:46.868Z,545.00
2022-08-03T05:12:46.860Z,545.00
2022-08-03T05:13:46.878Z,545.00
2022-08-03T05:14:46.784Z,544.00
2022-08-03T05:15:46.813Z,543.00
2022-08-03T05:16:46.777Z,544.00
2022-08-03T05:17:46.810Z,544.00
2022-08-03T05:18:46.719Z,544.00
2022-08-03T05:19:46.838Z,544.00
2022-08-03T05:20:46.698Z,545.00
2022-08-03T05:21:52.733Z,544.00
2022-08-03T05:22:46.698Z,543.00
2022-08-03T05:23:46.748Z,540.00
2022-08-03T05:24:46.655Z,540.00
2022-08-03T05:25:49.673Z,539.00
2022-08-03T05:26:46.623Z,541.00
2022-08-03T05:27:46.679Z,539.00
2022-08-03T05:28:50.960Z,539.00
2022-08-03T05:29:46.579Z,542.00
2022-08-03T05:30:46.601Z,541.00
2022-08-03T05:31:46.560Z,545.00
2022-08-03T05:32:46.613Z,538.00
2022-08-03T05:33:46.534Z,538.00
2022-08-03T05:34:46.579Z,533.00
2022-08-03T05:36:00.685Z,520.00
2022-08-03T05:36:47.489Z,518.00
2022-08-03T05:37:54.552Z,523.00
2022-08-03T05:38:47.471Z,526.00
2022-08-03T05:39:46.560Z,517.00
2022-08-03T05:40:56.665Z,513.00
2022-08-03T05:41:47.419Z,512.00
2022-08-03T05:42:46.479Z,510.00
2022-08-03T05:43:46.392Z,505.00
2022-08-03T05:44:46.489Z,505.00
2022-08-03T05:45:46.361Z,503.00
2022-08-03T05:46:47.390Z,504.00
2022-08-03T05:47:46.411Z,506.00
2022-08-03T05:48:46.333Z,506.00
2022-08-03T05:49:46.425Z,507.00
2022-08-03T05:50:46.303Z,508.00
2022-08-03T05:51:46.339Z,510.00
2022-08-03T05:52:47.344Z,513.00
2022-08-03T05:53:46.364Z,518.00
2022-08-03T05:54:55.800Z,520.00
2022-08-03T05:55:49.341Z,521.00
2022-08-03T05:56:47.268Z,513.00
2022-08-03T05:57:49.282Z,517.00
2022-08-03T05:58:46.288Z,520.00
2022-08-03T05:59:57.734Z,519.00
2022-08-03T06:00:47.172Z,521.00
2022-08-03T06:01:46.231Z,523.00
2022-08-03T06:02:46.143Z,529.00
2022-08-03T06:03:46.255Z,524.00
2022-08-03T06:04:46.134Z,525.00
2022-08-03T06:05:55.490Z,522.00
2022-08-03T06:06:47.090Z,513.00
2022-08-03T06:07:46.153Z,510.00
2022-08-03T06:08:46.074Z,509.00
2022-08-03T06:10:34.220Z,509.00
2022-08-03T06:10:47.055Z,506.00
2022-08-03T06:11:46.061Z,502.00
2022-08-03T06:12:46.086Z,502.00
2022-08-03T06:13:46.000Z,503.00
2022-08-03T06:14:46.105Z,502.00
2022-08-03T06:15:45.983Z,504.00
2022-08-03T06:16:46.288Z,503.00
2022-08-03T06:17:45.960Z,502.00
2022-08-03T06:18:46.034Z,502.00
2022-08-03T06:19:47.125Z,503.00
2022-08-03T06:20:47.171Z,503.00
2022-08-03T06:21:45.895Z,506.00
2022-08-03T06:22:50.965Z,506.00
2022-08-03T06:23:52.595Z,503.00
2022-08-03T06:24:53.278Z,502.00
2022-08-03T06:25:47.516Z,502.00
2022-08-03T06:26:45.891Z,503.00
2022-08-03T06:27:45.821Z,499.00
2022-08-03T06:28:52.893Z,498.00
2022-08-03T06:29:46.795Z,499.00
2022-08-03T06:30:45.816Z,497.00
2022-08-03T06:31:45.766Z,497.00
2022-08-03T06:32:51.783Z,498.00
2022-08-03T06:34:22.907Z,495.00
2022-08-03T06:34:46.731Z,497.00
2022-08-03T06:35:45.712Z,500.00
2022-08-03T06:36:46.780Z,501.00
2022-08-03T06:37:45.688Z,507.00
2022-08-03T06:38:45.716Z,512.00
2022-08-03T06:39:48.787Z,509.00
2022-08-03T06:40:45.674Z,500.00
2022-08-03T06:41:45.700Z,496.00
2022-08-03T06:42:45.694Z,487.00
2022-08-03T06:44:02.634Z,488.00
2022-08-03T06:44:46.627Z,488.00
2022-08-03T06:45:45.615Z,489.00
2022-08-03T06:46:45.588Z,490.00
2022-08-03T06:47:45.631Z,491.00
2022-08-03T06:48:45.549Z,490.00
2022-08-03T06:50:12.680Z,485.00
2022-08-03T06:50:46.630Z,484.00
2022-08-03T06:52:03.742Z,487.00
2022-08-03T06:52:46.628Z,487.00
2022-08-03T06:53:45.581Z,485.00
2022-08-03T06:54:45.471Z,483.00
2022-08-03T06:55:45.481Z,481.00
2022-08-03T06:56:45.466Z,482.00
2022-08-03T06:57:45.532Z,481.00
2022-08-03T06:58:45.415Z,482.00
2022-08-03T07:00:10.994Z,482.00
2022-08-03T07:00:46.449Z,483.00
2022-08-03T07:01:45.481Z,479.00
2022-08-03T07:02:45.421Z,479.00
2022-08-03T07:03:52.099Z,479.00
2022-08-03T07:04:46.332Z,479.00
2022-08-03T07:05:45.343Z,479.00
2022-08-03T07:06:45.320Z,479.00
2022-08-03T07:07:45.411Z,479.00
2022-08-03T07:08:45.278Z,477.00
2022-08-03T07:09:56.742Z,474.00
2022-08-03T07:10:46.260Z,474.00
2022-08-03T07:11:45.403Z,473.00
2022-08-03T07:12:55.557Z,476.00
2022-08-03T07:13:46.224Z,477.00
2022-08-03T07:14:45.314Z,476.00
2022-08-03T07:15:55.684Z,476.00
2022-08-03T07:16:46.174Z,476.00
2022-08-03T07:17:45.243Z,476.00
2022-08-03T07:18:45.142Z,476.00
2022-08-03T07:19:45.197Z,480.00
2022-08-03T07:20:45.115Z,479.00
2022-08-03T07:21:45.156Z,479.00
2022-08-03T07:22:45.088Z,478.00
2022-08-03T07:23:45.166Z,479.00
2022-08-03T07:24:45.083Z,475.00
2022-08-03T07:25:45.082Z,475.00
2022-08-03T07:26:45.035Z,474.00
2022-08-03T07:27:48.852Z,472.00
2022-08-03T07:28:46.007Z,472.00
2022-08-03T07:29:45.115Z,471.00
2022-08-03T07:30:45.003Z,472.00
2022-08-03T07:31:45.026Z,470.00
2022-08-03T07:32:49.738Z,470.00
2022-08-03T07:33:45.945Z,470.00
2022-08-03T07:34:44.943Z,474.00
2022-08-03T07:35:44.915Z,469.00
2022-08-03T07:36:46.046Z,470.00
2022-08-03T07:37:46.161Z,470.00
2022-08-03T07:38:52.047Z,469.00
2022-08-03T07:39:45.042Z,469.00
2022-08-03T07:40:46.512Z,470.00
2022-08-03T07:41:44.855Z,470.00
2022-08-03T07:42:44.907Z,470.00
2022-08-03T07:43:44.808Z,470.00
2022-08-03T07:44:46.021Z,467.00
2022-08-03T07:45:44.784Z,467.00
2022-08-03T07:46:45.847Z,467.00
2022-08-03T07:47:53.619Z,468.00
2022-08-03T07:48:45.748Z,468.00
2022-08-03T07:49:44.824Z,469.00
2022-08-03T07:50:44.715Z,468.00
2022-08-03T07:51:44.798Z,470.00
2022-08-03T07:52:44.708Z,469.00
2022-08-03T07:53:47.302Z,466.00
2022-08-03T07:54:44.660Z,465.00
2022-08-03T07:55:45.720Z,465.00
2022-08-03T07:56:44.650Z,465.00
2022-08-03T07:57:44.698Z,466.00
2022-08-03T07:58:44.632Z,465.00
2022-08-03T07:59:49.056Z,465.00
2022-08-03T08:00:45.600Z,464.00
2022-08-03T08:01:46.773Z,462.00
2022-08-03T08:02:44.827Z,462.00
2022-08-03T08:03:53.229Z,459.00
2022-08-03T08:04:45.559Z,460.00
2022-08-03T08:05:44.551Z,459.00
2022-08-03T08:06:44.523Z,453.00
2022-08-03T08:07:44.564Z,451.00
2022-08-03T08:08:45.504Z,450.00
2022-08-03T08:09:44.583Z,450.00
2022-08-03T08:10:58.143Z,452.00
2022-08-03T08:11:45.448Z,452.00
2022-08-03T08:12:44.500Z,450.00
2022-08-03T08:13:44.432Z,451.00
2022-08-03T08:14:44.516Z,449.00
2022-08-03T08:15:44.402Z,452.00
2022-08-03T08:16:44.433Z,462.00
2022-08-03T08:17:44.361Z,461.00
2022-08-03T08:18:44.441Z,462.00
2022-08-03T08:19:51.281Z,461.00
2022-08-03T08:20:45.350Z,459.00
2022-08-03T08:21:53.135Z,461.00
2022-08-03T08:22:45.304Z,458.00
2022-08-03T08:23:48.071Z,458.00
2022-08-03T08:24:45.773Z,456.00
2022-08-03T08:25:44.293Z,453.00
2022-08-03T08:26:44.283Z,452.00
2022-08-03T08:28:22.426Z,453.00
2022-08-03T08:28:45.346Z,451.00
2022-08-03T08:29:47.547Z,449.00
2022-08-03T08:30:45.333Z,449.00
2022-08-03T08:31:44.247Z,449.00
2022-08-03T08:32:44.192Z,452.00
2022-08-03T08:34:45.187Z,454.00
2022-08-03T08:35:44.125Z,456.00
2022-08-03T08:36:44.168Z,454.00
2022-08-03T08:37:50.769Z,457.00
2022-08-03T08:38:45.286Z,463.00
2022-08-03T08:39:44.187Z,459.00
2022-08-03T08:40:44.076Z,480.00
2022-08-03T08:41:46.817Z,544.00
2022-08-03T08:42:57.528Z,497.00
2022-08-03T08:43:45.083Z,595.00
2022-08-03T08:44:44.125Z,530.00
2022-08-03T08:45:44.446Z,585.00
2022-08-03T08:46:44.041Z,447.00
2022-08-03T08:47:51.174Z,451.00
2022-08-03T08:48:44.958Z,455.00
2022-08-03T08:49:53.550Z,451.00
2022-08-03T08:50:45.003Z,455.00
2022-08-03T08:51:54.734Z,454.00
2022-08-03T08:52:44.899Z,456.00
2022-08-03T08:53:45.018Z,459.00
2022-08-03T08:54:43.881Z,464.00
2022-08-03T08:55:58.178Z,464.00
2022-08-03T08:56:44.889Z,526.00
2022-08-03T08:57:43.911Z,491.00
2022-08-03T08:58:43.841Z,458.00
2022-08-03T08:59:48.017Z,453.00
2022-08-03T09:00:43.833Z,509.00
2022-08-03T09:01:44.926Z,499.00
2022-08-03T09:02:43.772Z,479.00
2022-08-03T09:03:43.868Z,482.00
2022-08-03T09:04:43.742Z,467.00
2022-08-03T09:05:55.856Z,472.00
2022-08-03T09:06:58.568Z,456.00
2022-08-03T09:07:44.714Z,454.00
2022-08-03T09:08:43.822Z,452.00
2022-08-03T09:10:08.396Z,448.00
2022-08-03T09:10:44.663Z,450.00
2022-08-03T09:11:51.467Z,458.00
2022-08-03T09:12:44.818Z,456.00
2022-08-03T09:13:44.843Z,458.00
2022-08-03T09:15:00.850Z,460.00
2022-08-03T09:16:01.297Z,460.00
2022-08-03T09:16:44.643Z,457.00
2022-08-03T09:17:46.546Z,455.00
2022-08-03T09:18:44.968Z,453.00
2022-08-03T09:19:43.567Z,454.00
2022-08-03T09:20:44.865Z,454.00
2022-08-03T09:21:44.127Z,455.00
2022-08-03T09:22:43.632Z,459.00
2022-08-03T09:23:59.703Z,460.00
2022-08-03T09:24:44.481Z,486.00
2022-08-03T09:25:43.493Z,466.00
2022-08-03T09:26:43.476Z,459.00
2022-08-03T09:27:43.740Z,467.00
2022-08-03T09:29:00.086Z,540.00
2022-08-03T09:29:44.426Z,527.00
2022-08-03T09:30:43.440Z,472.00
2022-08-03T09:31:44.197Z,514.00
2022-08-03T09:32:43.450Z,555.00
2022-08-03T09:33:43.372Z,642.00
2022-08-03T09:34:43.415Z,502.00
2022-08-03T09:35:58.823Z,483.00
2022-08-03T09:36:44.333Z,450.00
2022-08-03T09:38:12.352Z,451.00
2022-08-03T09:38:44.416Z,450.00
2022-08-03T09:39:43.302Z,453.00
2022-08-03T09:40:43.296Z,447.00
2022-08-03T09:41:43.273Z,448.00
2022-08-03T09:42:43.326Z,449.00
2022-08-03T09:43:43.245Z,450.00
2022-08-03T09:44:43.267Z,448.00
2022-08-03T09:45:43.205Z,448.00
2022-08-03T09:46:43.235Z,452.00
2022-08-03T09:47:44.740Z,449.00
2022-08-03T09:48:43.249Z,450.00
2022-08-03T09:49:43.188Z,457.00
2022-08-03T09:50:43.228Z,481.00
2022-08-03T09:52:31.317Z,473.00
2022-08-03T09:52:52.396Z,577.00
2022-08-03T09:53:59.167Z,539.00
2022-08-03T09:54:44.116Z,519.00
2022-08-03T09:56:33.754Z,465.00
2022-08-03T09:56:44.094Z,457.00
2022-08-03T09:57:43.058Z,453.00
2022-08-03T09:58:43.119Z,449.00
2022-08-03T09:59:43.029Z,450.00
2022-08-03T10:00:44.299Z,461.00
2022-08-03T10:01:43.744Z,463.00
2022-08-03T10:02:45.454Z,461.00
2022-08-03T10:04:02.831Z,453.00
2022-08-03T10:04:46.712Z,452.00
2022-08-03T10:05:45.443Z,450.00
2022-08-03T10:06:45.323Z,452.00
2022-08-03T10:07:47.495Z,450.00
2022-08-03T10:08:44.848Z,453.00
2022-08-03T10:09:45.259Z,453.00
2022-08-03T10:10:54.036Z,494.00
2022-08-03T10:11:44.532Z,482.00
2022-08-03T10:13:07.077Z,472.00
2022-08-03T10:13:43.972Z,476.00
2022-08-03T10:14:43.800Z,468.00
2022-08-03T10:16:23.902Z,461.00
2022-08-03T10:16:44.646Z,462.00
2022-08-03T10:17:47.236Z,465.00
2022-08-03T10:18:44.647Z,491.00
2022-08-03T10:19:44.268Z,457.00
2022-08-03T10:20:43.986Z,450.00
2022-08-03T10:21:43.834Z,446.00
2022-08-03T10:22:43.098Z,518.00
2022-08-03T10:23:42.805Z,560.00
2022-08-03T10:24:42.707Z,707.00
2022-08-03T10:25:42.764Z,607.00
2022-08-03T10:26:49.729Z,476.00
2022-08-03T10:27:43.674Z,451.00
2022-08-03T10:28:45.223Z,441.00
2022-08-03T10:29:42.635Z,444.00
2022-08-03T10:30:42.646Z,440.00
2022-08-03T10:31:54.760Z,440.00
2022-08-03T10:32:43.603Z,442.00
2022-08-03T10:33:51.532Z,447.00
2022-08-03T10:34:44.649Z,558.00
2022-08-03T10:35:42.578Z,480.00
2022-08-03T10:36:42.578Z,478.00
2022-08-03T10:37:42.601Z,473.00
2022-08-03T10:38:43.516Z,506.00
2022-08-03T10:39:42.607Z,461.00
2022-08-03T10:40:51.816Z,458.00
2022-08-03T10:41:43.518Z,509.00
2022-08-03T10:42:42.608Z,465.00
2022-08-03T10:43:42.456Z,477.00
2022-08-03T10:44:42.552Z,466.00
2022-08-03T10:45:42.429Z,482.00
2022-08-03T10:46:45.157Z,467.00
2022-08-03T10:47:42.419Z,457.00
2022-08-03T10:48:42.470Z,453.00
2022-08-03T10:49:42.426Z,446.00
2022-08-03T10:50:42.479Z,441.00
2022-08-03T10:51:42.339Z,444.00
2022-08-03T10:52:44.363Z,443.00
2022-08-03T10:53:47.094Z,442.00
2022-08-03T10:54:43.329Z,440.00
2022-08-03T10:55:42.429Z,439.00
2022-08-03T10:56:50.351Z,440.00
2022-08-03T10:57:43.301Z,441.00
2022-08-03T10:58:57.643Z,441.00
2022-08-03T10:59:43.272Z,462.00
2022-08-03T11:00:43.325Z,463.00
2022-08-03T11:01:59.851Z,450.00
2022-08-03T11:02:43.211Z,439.00
2022-08-03T11:03:42.321Z,438.00
2022-08-03T11:04:43.198Z,498.00
2022-08-03T11:05:43.201Z,482.00
2022-08-03T11:06:42.152Z,491.00
2022-08-03T11:07:43.222Z,552.00
2022-08-03T11:08:43.201Z,536.00
2022-08-03T11:09:42.139Z,450.00
2022-08-03T11:10:42.235Z,444.00
2022-08-03T11:11:42.090Z,443.00
2022-08-03T11:12:42.135Z,441.00
2022-08-03T11:13:42.090Z,443.00
2022-08-03T11:14:42.215Z,443.00
2022-08-03T11:15:42.561Z,442.00
2022-08-03T11:16:42.794Z,440.00
2022-08-03T11:17:46.902Z,441.00
2022-08-03T11:18:43.007Z,439.00
2022-08-03T11:19:57.445Z,442.00
2022-08-03T11:20:43.003Z,443.00
2022-08-03T11:21:42.013Z,456.00
2022-08-03T11:22:41.936Z,453.00
2022-08-03T11:24:05.523Z,447.00
2022-08-03T11:24:42.940Z,446.00
2022-08-03T11:25:54.848Z,443.00
2022-08-03T11:26:42.916Z,443.00
2022-08-03T11:27:41.937Z,443.00
2022-08-03T11:28:41.868Z,441.00
2022-08-03T11:29:41.948Z,436.00
2022-08-03T11:30:41.849Z,437.00
2022-08-03T11:31:50.563Z,434.00
2022-08-03T11:32:48.129Z,426.00
2022-08-03T11:33:42.801Z,432.00
2022-08-03T11:34:41.878Z,448.00
2022-08-03T11:35:41.779Z,436.00
2022-08-03T11:36:41.790Z,434.00
2022-08-03T11:37:41.779Z,435.00
2022-08-03T11:38:42.730Z,434.00
2022-08-03T11:39:41.729Z,465.00
2022-08-03T11:40:41.823Z,458.00
2022-08-03T11:41:42.778Z,441.00
2022-08-03T11:42:41.790Z,432.00
2022-08-03T11:43:41.669Z,537.00
2022-08-03T11:44:41.743Z,626.00
2022-08-03T11:45:42.659Z,459.00
2022-08-03T11:46:41.661Z,442.00
2022-08-03T11:47:51.069Z,439.00
2022-08-03T11:48:42.751Z,437.00
2022-08-03T11:49:41.754Z,435.00
2022-08-03T11:50:41.654Z,431.00
2022-08-03T11:53:12.935Z,483.00
2022-08-03T11:53:52.847Z,449.00
2022-08-03T11:54:56.955Z,434.00
2022-08-03T11:55:51.076Z,433.00
2022-08-03T11:56:50.872Z,430.00
2022-08-03T11:59:00.850Z,444.00
2022-08-03T11:59:09.396Z,440.00
2022-08-03T11:59:51.738Z,577.00
2022-08-03T12:00:50.797Z,651.00
2022-08-03T12:01:50.706Z,453.00
2022-08-03T12:02:50.873Z,447.00
2022-08-03T12:03:50.669Z,443.00
2022-08-03T12:04:50.757Z,443.00
2022-08-03T12:05:51.767Z,447.00
2022-08-03T12:08:06.357Z,498.00
2022-08-03T12:09:02.935Z,442.00
2022-08-03T12:10:03.275Z,445.00
2022-08-03T12:11:03.427Z,535.00
2022-08-03T12:12:03.958Z,456.00
2022-08-03T12:13:02.846Z,460.00
2022-08-03T12:14:47.991Z,452.00
2022-08-03T12:15:03.863Z,448.00
2022-08-03T12:16:02.813Z,442.00
2022-08-03T12:17:02.878Z,435.00
2022-08-03T12:18:02.952Z,439.00
2022-08-03T12:19:03.816Z,438.00
2022-08-03T12:20:02.768Z,438.00
2022-08-03T12:21:02.858Z,440.00
2022-08-03T12:22:02.728Z,613.00
2022-08-03T12:23:02.809Z,455.00
2022-08-03T12:24:02.709Z,443.00
2022-08-03T12:25:02.732Z,434.00
2022-08-03T12:26:02.697Z,433.00
2022-08-03T12:27:02.803Z,431.00
2022-08-03T12:28:02.659Z,429.00
2022-08-03T12:29:02.762Z,438.00
2022-08-03T12:30:02.619Z,445.00
2022-08-03T12:31:02.662Z,443.00
2022-08-03T12:32:02.604Z,440.00